weather.gov     
National Weather Service

Terminal Aerodrome Forecast
NWS Homepage
This page is being discontinued on March 12, 2014.
The same data is available at this site. Please update your bookmarks.
Thank you, and we apologize for the inconvenience.
Please send an email to SR-SRH.Webmaster@noaa.gov with any concerns.


Current Version
Previous Version:    01  02  03  04  05  06  07  08  09  10  11  12  13  14  15  16  17  18  19  20  21  22  23  
[Printable]
626
FTUS46 KOTX 230528
TAFEAT
TAF
KEAT 230528Z 2306/2406 30007KT P6SM -SHRA VCTS FEW050 SCT070CB
      OVC100
     FM231000 30004KT P6SM VCSH SCT070 BKN100
     FM231800 29008KT P6SM -TSRA SCT050 BKN070CB BKN100
     FM232300 29016G28KT P6SM -TSRA SCT040 BKN060CB OVC080
     FM240300 30012KT P6SM VCSH SCT040 BKN060 OVC100=


626
FTUS46 KOTX 230528
TAFEAT
TAF
KEAT 230528Z 2306/2406 30007KT P6SM -SHRA VCTS FEW050 SCT070CB
      OVC100
     FM231000 30004KT P6SM VCSH SCT070 BKN100
     FM231800 29008KT P6SM -TSRA SCT050 BKN070CB BKN100
     FM232300 29016G28KT P6SM -TSRA SCT040 BKN060CB OVC080
     FM240300 30012KT P6SM VCSH SCT040 BKN060 OVC100=




U.S. Dept. of Commerce
NOAA National Weather Service
1325 East West Highway
Silver Spring, MD 20910
E-mail: w-nws.webmaster@noaa.gov
Page last modified: May 16, 2007
NATIONAL WEATHER SERVICE: for Safety, for Work, for Fun - FOR LIFE